Shakopee, MN (55379)

12:15 AM CST on December 06, 2016 (GMT -0600)
APRSWXNET | | Change Station

Elev 800 ft 44.78 °N, 93.49 °W | Updated 24 minutes ago

Overcast
Overcast
37 °F
Feels Like 28 °F
N
14
Wind Variable Wind from West
Gusts 18.0 mph

Today
High -- | Low -- °F
--% Chance of Precip.
Yesterday
High -- | Low -- °F
Precip. -- in
Pressure 29.68 in
Visibility 10.0 miles
Clouds Overcast 2100 ft
Windchill 28 °F
Dew Point 34 °F
Humidity 89%
Rainfall in
Snow Depth Not available.
7:37 AM 4:33 PM
Waxing Crescent, 38% visible
METAR KFCM 060553Z AUTO 23013KT 10SM OVC021 03/M01 A2966 RMK AO2 SLP051 T00281011 10050 20028 400501028 51009
Pressure 29.68 in
Visibility 10.0 miles
Clouds Overcast 2100 ft
Windchill 28 °F
Dew Point 34 °F
Humidity 89%
Rainfall in
Snow Depth Not available.
7:37 AM 4:33 PM
Waxing Crescent, 38% visible
METAR KFCM 060553Z AUTO 23013KT 10SM OVC021 03/M01 A2966 RMK AO2 SLP051 T00281011 10050 20028 400501028 51009

10-Day Weather Forecast

Almanac

Astronomy

Dec. 06, 2016 Rise Set
Actual Time
Civil Twilight
Nautical Twilight
Astronomical Twilight
Moon
Length of Visible Light
Length of Day
Tomorrow will be .
, % of the Moon is Illuminated

Today's Extremes

State Highs State Lows

Community

WunderPhotos

Upload Photos

1,955,932 photos uploaded!

WunderBlog® & News

Nearby

Air Quality

  Air Quality AQ Index Pollutant
Not available.

Snow Depth

Station Depth Elevation

Earthquake Activity

City Distance Mag. Time & Date
Minimum magnitude displayed is 2.5.

Coastal Water Temperatures

Place Temperature

Stations

Nearby Weather Stations

Station Location Temp. Windchill Dew Point Humidity Wind Precip. Elev Updated Type
                   

Watches & Warnings

There are currently no watches in effect.